createdAt,value
2022-11-30T00:00:40.574Z,83.08
2022-11-30T00:01:41.143Z,83.18
2022-11-30T00:02:41.875Z,83.18
2022-11-30T00:03:42.517Z,83.28
2022-11-30T00:04:43.180Z,83.38
2022-11-30T00:05:43.861Z,83.59
2022-11-30T00:06:44.459Z,83.59
2022-11-30T00:07:45.130Z,83.69
2022-11-30T00:08:45.737Z,83.79
2022-11-30T00:09:46.300Z,83.79
2022-11-30T00:10:46.955Z,83.79
2022-11-30T00:11:47.679Z,83.69
2022-11-30T00:12:48.274Z,83.45
2022-11-30T00:13:48.836Z,83.14
2022-11-30T00:14:49.411Z,83.04
2022-11-30T00:15:50.063Z,82.94
2022-11-30T00:16:50.676Z,82.78
2022-11-30T00:17:51.270Z,82.67
2022-11-30T00:18:51.846Z,82.57
2022-11-30T00:19:52.410Z,82.57
2022-11-30T00:20:53.142Z,82.47
2022-11-30T00:21:53.712Z,82.57
2022-11-30T00:22:54.279Z,82.37
2022-11-30T00:23:54.847Z,82.37
2022-11-30T00:24:55.437Z,82.37
2022-11-30T00:25:56.169Z,82.37
2022-11-30T00:26:56.751Z,82.23
2022-11-30T00:27:57.331Z,82.17
2022-11-30T00:28:57.905Z,82.03
2022-11-30T00:29:58.470Z,82.06
2022-11-30T00:30:59.281Z,81.92
2022-11-30T00:31:59.899Z,81.92
2022-11-30T00:33:00.483Z,81.92
2022-11-30T00:34:01.063Z,81.92
2022-11-30T00:35:01.662Z,81.92
2022-11-30T00:36:02.280Z,81.92
2022-11-30T00:37:02.849Z,82.03
2022-11-30T00:38:03.432Z,82.03
2022-11-30T00:39:03.999Z,82.03
2022-11-30T00:40:04.597Z,81.92
2022-11-30T00:41:05.249Z,81.92
2022-11-30T00:42:05.827Z,82.03
2022-11-30T00:43:07.446Z,82.03
2022-11-30T00:44:07.015Z,82.03
2022-11-30T00:45:07.588Z,82.03
2022-11-30T00:46:08.284Z,82.03
2022-11-30T00:47:08.899Z,81.92
2022-11-30T00:48:09.477Z,82.03
2022-11-30T00:49:10.077Z,82.03
2022-11-30T00:50:10.662Z,82.12
2022-11-30T00:51:11.346Z,82.12
2022-11-30T00:52:11.928Z,82.23
2022-11-30T00:53:12.510Z,82.12
2022-11-30T00:54:13.102Z,82.23
2022-11-30T00:55:13.684Z,82.33
2022-11-30T00:56:14.316Z,82.43
2022-11-30T00:57:14.890Z,82.33
2022-11-30T00:58:15.474Z,82.43
2022-11-30T00:59:16.051Z,82.53
2022-11-30T01:00:16.635Z,82.64
2022-11-30T01:01:17.477Z,82.64
2022-11-30T01:02:18.131Z,82.53
2022-11-30T01:03:18.721Z,82.53
2022-11-30T01:04:19.297Z,82.64
2022-11-30T01:05:19.879Z,82.73
2022-11-30T01:06:20.476Z,82.73
2022-11-30T01:07:21.053Z,82.73
2022-11-30T01:08:21.632Z,82.64
2022-11-30T01:09:22.217Z,82.53
2022-11-30T01:10:22.783Z,82.43
2022-11-30T01:11:23.391Z,82.43
2022-11-30T01:12:23.966Z,82.43
2022-11-30T01:13:24.537Z,82.53
2022-11-30T01:14:25.113Z,82.64
2022-11-30T01:15:25.676Z,82.53
2022-11-30T01:16:26.368Z,82.53
2022-11-30T01:17:26.970Z,82.64
2022-11-30T01:18:27.535Z,82.78
2022-11-30T01:19:28.125Z,82.87
2022-11-30T01:20:28.700Z,82.98
2022-11-30T01:21:29.427Z,82.98
2022-11-30T01:22:30.027Z,82.98
2022-11-30T01:23:30.608Z,82.78
2022-11-30T01:24:31.189Z,82.78
2022-11-30T01:25:31.767Z,82.78
2022-11-30T01:26:32.385Z,82.87
2022-11-30T01:27:32.991Z,82.98
2022-11-30T01:28:32.475Z,83.08
2022-11-30T01:29:34.067Z,83.18
2022-11-30T01:30:34.703Z,83.28
2022-11-30T01:31:35.534Z,83.28
2022-11-30T01:32:36.110Z,83.38
2022-11-30T01:33:36.686Z,83.48
2022-11-30T01:34:37.266Z,83.48
2022-11-30T01:35:37.840Z,83.38
2022-11-30T01:36:38.455Z,83.38
2022-11-30T01:37:39.029Z,83.18
2022-11-30T01:38:39.604Z,83.18
2022-11-30T01:39:40.180Z,83.18
2022-11-30T01:40:40.741Z,83.08
2022-11-30T01:41:41.415Z,83.08
2022-11-30T01:42:41.985Z,82.98
2022-11-30T01:43:42.579Z,82.98
2022-11-30T01:44:43.151Z,82.98
2022-11-30T01:45:43.744Z,82.98
2022-11-30T01:46:44.369Z,83.08
2022-11-30T01:47:44.948Z,83.18
2022-11-30T01:48:45.569Z,83.28
2022-11-30T01:49:46.132Z,83.42
2022-11-30T01:50:46.718Z,83.62
2022-11-30T01:51:47.346Z,83.62
2022-11-30T01:52:47.922Z,83.73
2022-11-30T01:53:48.498Z,83.83
2022-11-30T01:54:49.440Z,83.83
2022-11-30T01:55:49.726Z,83.83
2022-11-30T01:56:50.349Z,83.83
2022-11-30T01:57:50.921Z,83.83
2022-11-30T01:58:51.501Z,83.93
2022-11-30T01:59:52.072Z,84.03
2022-11-30T02:00:52.667Z,84.03
2022-11-30T02:01:53.385Z,84.13
2022-11-30T02:02:54.085Z,84.23
2022-11-30T02:03:54.719Z,84.23
2022-11-30T02:04:55.298Z,84.23
2022-11-30T02:05:55.879Z,84.34
2022-11-30T02:06:56.554Z,84.34
2022-11-30T02:07:57.236Z,84.44
2022-11-30T02:08:57.847Z,84.68
2022-11-30T02:09:58.429Z,84.68
2022-11-30T02:10:59.015Z,84.78
2022-11-30T02:11:59.631Z,84.78
2022-11-30T02:13:00.204Z,84.88
2022-11-30T02:14:00.788Z,84.99
2022-11-30T02:15:01.356Z,84.88
2022-11-30T02:16:02.243Z,84.88
2022-11-30T02:17:03.088Z,84.88
2022-11-30T02:18:03.685Z,84.88
2022-11-30T02:19:04.278Z,84.95
2022-11-30T02:20:04.850Z,84.95
2022-11-30T02:21:05.414Z,84.95
2022-11-30T02:22:06.138Z,85.05
2022-11-30T02:23:06.720Z,85.05
2022-11-30T02:24:07.300Z,84.95
2022-11-30T02:25:07.968Z,84.74
2022-11-30T02:26:08.555Z,84.54
2022-11-30T02:27:09.291Z,84.34
2022-11-30T02:28:09.880Z,84.34
2022-11-30T02:29:10.503Z,84.23
2022-11-30T02:30:11.080Z,84.44
2022-11-30T02:31:11.710Z,84.64
2022-11-30T02:32:12.410Z,84.74
2022-11-30T02:33:13.001Z,84.74
2022-11-30T02:34:13.584Z,84.95
2022-11-30T02:35:14.162Z,84.95
2022-11-30T02:36:14.757Z,85.15
2022-11-30T02:37:15.357Z,85.15
2022-11-30T02:38:15.933Z,85.25
2022-11-30T02:39:16.505Z,85.35
2022-11-30T02:40:17.092Z,85.55
2022-11-30T02:41:17.664Z,85.66
2022-11-30T02:42:18.270Z,85.76
2022-11-30T02:43:18.846Z,85.96
2022-11-30T02:44:19.420Z,85.96
2022-11-30T02:45:20.013Z,86.16
2022-11-30T02:46:20.600Z,86.37
2022-11-30T02:47:21.230Z,86.57
2022-11-30T02:48:21.818Z,86.68
2022-11-30T02:49:22.385Z,86.63
2022-11-30T02:50:22.957Z,86.53
2022-11-30T02:51:23.529Z,86.43
2022-11-30T02:52:24.266Z,86.33
2022-11-30T02:53:24.836Z,86.43
2022-11-30T02:54:25.413Z,86.53
2022-11-30T02:55:26.000Z,86.63
2022-11-30T02:56:26.575Z,86.83
2022-11-30T02:57:27.226Z,87.14
2022-11-30T02:58:27.808Z,87.10
2022-11-30T02:59:28.386Z,87.20
2022-11-30T03:00:28.952Z,87.20
2022-11-30T03:01:29.573Z,87.20
2022-11-30T03:02:30.349Z,87.20
2022-11-30T03:03:30.937Z,87.20
2022-11-30T03:04:31.524Z,87.20
2022-11-30T03:05:32.095Z,87.00
2022-11-30T03:06:33.686Z,87.00
2022-11-30T03:07:33.410Z,86.90
2022-11-30T03:08:34.020Z,86.90
2022-11-30T03:09:34.601Z,86.90
2022-11-30T03:10:35.182Z,87.00
2022-11-30T03:11:35.769Z,87.10
2022-11-30T03:12:36.373Z,87.20
2022-11-30T03:13:36.948Z,87.30
2022-11-30T03:14:37.508Z,87.30
2022-11-30T03:15:38.169Z,87.40
2022-11-30T03:16:38.771Z,87.51
2022-11-30T03:17:39.506Z,87.61
2022-11-30T03:18:40.084Z,87.71
2022-11-30T03:19:40.658Z,87.81
2022-11-30T03:20:41.247Z,87.81
2022-11-30T03:21:41.828Z,87.92
2022-11-30T03:22:42.588Z,88.12
2022-11-30T03:23:43.189Z,88.42
2022-11-30T03:24:43.780Z,88.52
2022-11-30T03:25:44.367Z,88.73
2022-11-30T03:26:44.970Z,88.93
2022-11-30T03:27:45.617Z,89.13
2022-11-30T03:28:46.189Z,89.19
2022-11-30T03:29:46.753Z,89.33
2022-11-30T03:30:47.356Z,89.29
2022-11-30T03:31:47.938Z,89.19
2022-11-30T03:32:48.718Z,89.09
2022-11-30T03:33:49.295Z,89.19
2022-11-30T03:34:50.095Z,89.09
2022-11-30T03:35:50.750Z,89.19
2022-11-30T03:36:51.331Z,89.19
2022-11-30T03:37:51.998Z,89.09
2022-11-30T03:38:52.580Z,88.99
2022-11-30T03:39:57.958Z,88.89
2022-11-30T03:40:54.060Z,88.78
2022-11-30T03:41:54.649Z,88.68
2022-11-30T03:42:55.282Z,88.78
2022-11-30T03:43:55.862Z,88.68
2022-11-30T03:44:56.438Z,88.58
2022-11-30T03:46:57.930Z,88.68
2022-11-30T03:47:58.561Z,88.89
2022-11-30T03:48:59.127Z,89.09
2022-11-30T03:49:59.716Z,89.19
2022-11-30T03:51:00.288Z,89.29
2022-11-30T03:52:00.871Z,89.29
2022-11-30T03:53:01.548Z,89.39
2022-11-30T03:54:02.129Z,89.50
2022-11-30T03:55:02.718Z,89.50
2022-11-30T03:56:03.300Z,89.50
2022-11-30T03:57:03.880Z,89.39
2022-11-30T03:58:04.584Z,89.29
2022-11-30T03:59:05.154Z,89.29
2022-11-30T04:00:05.747Z,89.23
2022-11-30T04:01:06.329Z,89.23
2022-11-30T04:02:06.955Z,89.23
2022-11-30T04:03:07.890Z,89.23
2022-11-30T04:04:08.488Z,89.13
2022-11-30T04:05:09.056Z,89.03
2022-11-30T04:06:09.623Z,88.93
2022-11-30T04:07:10.194Z,88.93
2022-11-30T04:08:10.798Z,88.82
2022-11-30T04:09:11.366Z,88.82
2022-11-30T04:10:11.940Z,88.62
2022-11-30T04:11:12.514Z,88.52
2022-11-30T04:12:13.078Z,88.42
2022-11-30T04:13:13.680Z,88.32
2022-11-30T04:14:14.270Z,88.32
2022-11-30T04:15:14.857Z,88.42
2022-11-30T04:16:15.520Z,88.32
2022-11-30T04:17:16.148Z,88.32
2022-11-30T04:18:16.781Z,88.42
2022-11-30T04:19:17.368Z,88.42
2022-11-30T04:20:17.950Z,88.42
2022-11-30T04:21:18.530Z,88.52
2022-11-30T04:22:19.118Z,88.52
2022-11-30T04:23:20.408Z,88.62
2022-11-30T04:24:20.481Z,88.73
2022-11-30T04:25:21.049Z,88.82
2022-11-30T04:26:21.619Z,89.03
2022-11-30T04:27:22.189Z,89.23
2022-11-30T04:28:23.720Z,89.33
2022-11-30T04:29:23.310Z,89.43
2022-11-30T04:30:23.898Z,89.43
2022-11-30T04:31:24.566Z,89.43
2022-11-30T04:32:25.177Z,89.54
2022-11-30T04:33:25.838Z,89.43
2022-11-30T04:34:26.418Z,89.43
2022-11-30T04:35:26.989Z,89.43
2022-11-30T04:36:27.553Z,89.54
2022-11-30T04:37:28.143Z,89.54
2022-11-30T04:38:28.752Z,89.64
2022-11-30T04:39:29.338Z,89.64
2022-11-30T04:40:29.921Z,89.64
2022-11-30T04:41:30.491Z,89.74
2022-11-30T04:42:31.090Z,89.84
2022-11-30T04:43:31.685Z,89.84
2022-11-30T04:44:32.254Z,89.84
2022-11-30T04:45:35.492Z,89.84
2022-11-30T04:46:33.458Z,89.84
2022-11-30T04:47:34.087Z,89.94
2022-11-30T04:48:34.730Z,89.94
2022-11-30T04:49:35.294Z,90.05
2022-11-30T04:50:35.866Z,90.14
2022-11-30T04:51:36.442Z,90.14
2022-11-30T04:52:37.023Z,90.14
2022-11-30T04:53:37.652Z,90.25
2022-11-30T04:54:38.225Z,90.25
2022-11-30T04:55:38.812Z,90.25
2022-11-30T04:56:39.380Z,90.14
2022-11-30T04:57:39.958Z,90.14
2022-11-30T04:58:40.641Z,90.05
2022-11-30T04:59:41.212Z,90.05
2022-11-30T05:00:41.791Z,90.05
2022-11-30T05:01:42.444Z,90.05
2022-11-30T05:02:45.364Z,89.94
2022-11-30T05:03:44.044Z,90.05
2022-11-30T05:04:44.916Z,90.05
2022-11-30T05:05:45.324Z,89.94
2022-11-30T05:06:45.920Z,89.94
2022-11-30T05:07:46.535Z,89.84
2022-11-30T05:08:47.170Z,89.84
2022-11-30T05:09:47.744Z,89.94
2022-11-30T05:10:52.844Z,89.94
2022-11-30T05:11:49.229Z,89.94
2022-11-30T05:12:49.820Z,89.84
2022-11-30T05:13:50.439Z,89.84
2022-11-30T05:14:50.978Z,89.74
2022-11-30T05:15:51.585Z,89.74
2022-11-30T05:16:52.192Z,89.84
2022-11-30T05:17:52.784Z,89.84
2022-11-30T05:18:53.456Z,89.74
2022-11-30T05:19:54.038Z,89.74
2022-11-30T05:20:54.617Z,89.64
2022-11-30T05:21:55.150Z,89.64
2022-11-30T05:22:55.673Z,89.54
2022-11-30T05:23:56.263Z,89.54
2022-11-30T05:24:57.310Z,89.43
2022-11-30T05:25:57.341Z,89.54
2022-11-30T05:26:57.866Z,89.68
2022-11-30T05:27:58.398Z,89.78
2022-11-30T05:28:59.172Z,89.88
2022-11-30T05:29:59.697Z,90.09
2022-11-30T05:31:00.276Z,90.19
2022-11-30T05:32:00.795Z,90.29
2022-11-30T05:33:01.315Z,90.39
2022-11-30T05:34:01.893Z,90.49
2022-11-30T05:35:02.426Z,90.59
2022-11-30T05:36:08.806Z,90.70
2022-11-30T05:37:03.804Z,90.80
2022-11-30T05:38:04.339Z,90.90
2022-11-30T05:39:04.913Z,91.00
2022-11-30T05:40:05.417Z,91.00
2022-11-30T05:41:05.992Z,91.10
2022-11-30T05:42:06.526Z,91.10
2022-11-30T05:43:07.206Z,91.10
2022-11-30T05:44:07.787Z,91.10
2022-11-30T05:45:09.090Z,91.20
2022-11-30T05:46:11.594Z,91.30
2022-11-30T05:47:09.795Z,91.30
2022-11-30T05:48:12.286Z,91.41
2022-11-30T05:49:11.357Z,91.41
2022-11-30T05:50:12.059Z,91.41
2022-11-30T05:51:12.680Z,91.41
2022-11-30T05:52:19.669Z,91.51
2022-11-30T05:53:14.304Z,91.51
2022-11-30T05:54:16.177Z,91.41
2022-11-30T05:55:16.278Z,91.36
2022-11-30T05:56:16.567Z,91.26
2022-11-30T05:57:17.087Z,91.16
2022-11-30T05:58:17.604Z,91.16
2022-11-30T05:59:18.161Z,91.26
2022-11-30T06:00:18.820Z,91.16
2022-11-30T06:01:19.474Z,91.26
2022-11-30T06:02:25.110Z,91.16
2022-11-30T06:03:21.064Z,91.16
2022-11-30T06:04:22.513Z,91.06
2022-11-30T06:05:22.243Z,91.06
2022-11-30T06:06:22.756Z,90.96
2022-11-30T06:07:23.516Z,91.06
2022-11-30T06:08:24.128Z,91.06
2022-11-30T06:09:24.727Z,91.20
2022-11-30T06:10:25.261Z,91.30
2022-11-30T06:11:26.490Z,91.30
2022-11-30T06:12:29.851Z,91.41
2022-11-30T06:13:36.378Z,91.47
2022-11-30T06:14:38.129Z,91.47
2022-11-30T06:15:28.665Z,91.47
2022-11-30T06:16:29.331Z,91.47
2022-11-30T06:17:29.908Z,91.56
2022-11-30T06:18:30.431Z,91.56
2022-11-30T06:19:31.504Z,91.67
2022-11-30T06:20:32.050Z,91.67
2022-11-30T06:21:33.901Z,91.67
2022-11-30T06:22:32.979Z,91.67
2022-11-30T06:23:33.502Z,91.67
2022-11-30T06:24:42.508Z,91.67
2022-11-30T06:25:34.702Z,91.67
2022-11-30T06:26:35.349Z,91.56
2022-11-30T06:27:35.904Z,91.47
2022-11-30T06:28:36.730Z,91.47
2022-11-30T06:29:37.014Z,91.36
2022-11-30T06:30:37.607Z,91.36
2022-11-30T06:31:38.146Z,91.26
2022-11-30T06:32:38.684Z,91.26
2022-11-30T06:33:39.219Z,91.36
2022-11-30T06:34:39.857Z,91.36
2022-11-30T06:35:40.657Z,91.36
2022-11-30T06:36:41.464Z,91.47
2022-11-30T06:37:42.392Z,91.47
2022-11-30T06:38:43.144Z,91.56
2022-11-30T06:40:05.444Z,91.52
2022-11-30T06:40:45.079Z,91.52
2022-11-30T06:41:47.905Z,91.52
2022-11-30T06:42:46.153Z,91.52
2022-11-30T06:43:46.971Z,91.42
2022-11-30T06:44:48.065Z,91.32
2022-11-30T06:45:48.474Z,91.12
2022-11-30T06:46:49.093Z,91.12
2022-11-30T06:47:49.608Z,91.02
2022-11-30T06:48:50.255Z,91.02
2022-11-30T06:49:50.826Z,91.02
2022-11-30T06:50:51.388Z,91.12
2022-11-30T06:51:51.903Z,91.02
2022-11-30T06:52:52.507Z,91.02
2022-11-30T06:53:53.040Z,91.02
2022-11-30T06:54:53.553Z,90.92
2022-11-30T06:55:54.130Z,90.92
2022-11-30T06:56:54.654Z,90.92
2022-11-30T06:57:55.171Z,90.88
2022-11-30T06:58:55.801Z,90.88
2022-11-30T07:00:01.437Z,90.77
2022-11-30T07:00:57.050Z,90.77
2022-11-30T07:01:59.020Z,90.88
2022-11-30T07:02:58.142Z,90.88
2022-11-30T07:03:58.693Z,90.77
2022-11-30T07:04:59.281Z,90.77
2022-11-30T07:06:00.011Z,90.77
2022-11-30T07:07:00.527Z,90.77
2022-11-30T07:08:01.120Z,90.77
2022-11-30T07:09:01.745Z,90.77
2022-11-30T07:10:06.212Z,90.77
2022-11-30T07:11:04.558Z,90.77
2022-11-30T07:13:52.683Z,90.67
2022-11-30T07:14:54.223Z,90.47
2022-11-30T07:15:54.756Z,90.36
2022-11-30T07:16:55.425Z,90.36
2022-11-30T07:17:55.996Z,90.36
2022-11-30T07:18:56.535Z,90.26
2022-11-30T07:20:02.256Z,90.16
2022-11-30T07:21:00.367Z,90.26
2022-11-30T07:22:02.132Z,90.16
2022-11-30T07:23:13.350Z,90.06
2022-11-30T07:24:12.959Z,90.22
2022-11-30T07:25:00.640Z,90.22
2022-11-30T07:26:24.131Z,90.22
2022-11-30T07:27:06.114Z,90.42
2022-11-30T07:28:03.189Z,90.42
2022-11-30T07:29:10.105Z,90.42
2022-11-30T07:30:10.701Z,90.42
2022-11-30T07:31:04.817Z,90.32
2022-11-30T07:32:17.313Z,90.32
2022-11-30T07:33:41.548Z,90.42
2022-11-30T07:34:13.332Z,90.62
2022-11-30T07:35:37.516Z,90.83
2022-11-30T07:36:09.127Z,91.03
2022-11-30T07:37:41.974Z,90.93
2022-11-30T07:38:11.484Z,90.93
2022-11-30T07:39:19.650Z,91.03
2022-11-30T07:40:13.469Z,91.03
2022-11-30T07:41:12.118Z,91.13
2022-11-30T07:42:14.980Z,91.13
2022-11-30T07:43:43.790Z,91.24
2022-11-30T07:44:46.812Z,91.13
2022-11-30T07:47:04.013Z,91.03
2022-11-30T07:48:05.574Z,90.93
2022-11-30T07:49:07.045Z,91.03
2022-11-30T07:51:56.007Z,91.03
2022-11-30T07:52:58.021Z,91.03
2022-11-30T07:53:58.623Z,91.03
2022-11-30T07:55:11.598Z,91.03
2022-11-30T07:56:07.114Z,91.03
2022-11-30T07:57:01.258Z,91.13
2022-11-30T08:00:03.031Z,91.34
2022-11-30T08:01:11.109Z,91.34
2022-11-30T08:01:53.396Z,91.39
2022-11-30T08:02:54.243Z,91.50
2022-11-30T08:03:54.855Z,91.50
2022-11-30T08:05:24.236Z,91.50
2022-11-30T08:06:15.180Z,91.60
2022-11-30T08:07:14.466Z,91.70
2022-11-30T08:07:57.869Z,91.70
2022-11-30T08:08:58.172Z,91.70
2022-11-30T08:10:05.664Z,91.70
2022-11-30T08:10:59.527Z,91.60
2022-11-30T08:12:00.575Z,91.60
2022-11-30T08:13:01.282Z,91.70
2022-11-30T08:14:02.680Z,91.70
2022-11-30T08:15:20.692Z,91.90
2022-11-30T08:16:03.495Z,91.96
2022-11-30T08:17:04.042Z,92.06
2022-11-30T08:18:04.584Z,92.16
2022-11-30T08:19:05.183Z,92.26
2022-11-30T08:20:05.970Z,92.36
2022-11-30T08:21:06.518Z,92.47
2022-11-30T08:22:08.280Z,92.47
2022-11-30T08:23:08.059Z,92.57
2022-11-30T08:24:08.636Z,92.57
2022-11-30T08:25:09.185Z,92.67
2022-11-30T08:26:09.776Z,92.77
2022-11-30T08:27:10.302Z,92.77
2022-11-30T08:28:10.846Z,92.77
2022-11-30T08:29:11.569Z,92.87
2022-11-30T08:30:12.211Z,92.77
2022-11-30T08:31:12.868Z,92.77
2022-11-30T08:32:13.425Z,92.67
2022-11-30T08:33:14.417Z,92.67
2022-11-30T08:34:15.436Z,92.67
2022-11-30T08:35:15.822Z,92.67
2022-11-30T08:36:31.317Z,92.67
2022-11-30T08:37:17.200Z,92.67
2022-11-30T08:38:17.753Z,92.67
2022-11-30T08:39:18.312Z,92.67
2022-11-30T08:40:19.111Z,92.67
2022-11-30T08:41:19.675Z,92.67
2022-11-30T08:42:22.955Z,92.67
2022-11-30T08:43:21.299Z,92.67
2022-11-30T08:44:21.910Z,92.77
2022-11-30T08:45:22.420Z,92.77
2022-11-30T08:46:53.008Z,92.67
2022-11-30T08:47:23.931Z,92.77
2022-11-30T08:48:24.498Z,92.77
2022-11-30T08:49:31.946Z,92.77
2022-11-30T08:50:28.688Z,92.57
2022-11-30T08:51:53.806Z,92.47
2022-11-30T08:52:30.562Z,92.47
2022-11-30T08:53:34.832Z,92.47
2022-11-30T08:54:28.981Z,92.47
2022-11-30T08:55:31.038Z,92.36
2022-11-30T08:56:35.112Z,92.26
2022-11-30T08:57:30.940Z,92.26
2022-11-30T08:58:31.466Z,92.26
2022-11-30T08:59:31.980Z,92.26
2022-11-30T09:00:32.959Z,92.26
2022-11-30T09:01:33.406Z,92.26
2022-11-30T09:02:34.135Z,92.26
2022-11-30T09:03:34.687Z,92.26
2022-11-30T09:04:35.217Z,92.32
2022-11-30T09:05:35.745Z,92.42
2022-11-30T09:06:36.828Z,92.52
2022-11-30T09:07:36.965Z,92.52
2022-11-30T09:08:40.902Z,92.52
2022-11-30T09:09:38.178Z,92.52
2022-11-30T09:10:38.995Z,92.52
2022-11-30T09:11:39.816Z,92.52
2022-11-30T09:12:40.331Z,92.42
2022-11-30T09:13:41.637Z,92.32
2022-11-30T09:14:41.902Z,92.22
2022-11-30T09:15:46.966Z,92.22
2022-11-30T09:16:43.200Z,92.12
2022-11-30T09:17:43.749Z,92.02
2022-11-30T09:20:36.420Z,91.92
2022-11-30T09:21:38.059Z,91.92
2022-11-30T09:22:36.571Z,91.92
2022-11-30T09:23:55.351Z,91.92
2022-11-30T09:24:38.527Z,91.92
2022-11-30T09:25:39.823Z,91.92
2022-11-30T09:32:05.343Z,91.82
2022-11-30T09:33:06.870Z,91.82
2022-11-30T09:34:07.385Z,91.71
2022-11-30T09:35:12.608Z,91.92
2022-11-30T09:36:08.769Z,92.02
2022-11-30T09:37:09.375Z,92.12
2022-11-30T09:38:09.902Z,92.08
2022-11-30T09:39:10.459Z,92.08
2022-11-30T09:40:10.967Z,92.18
2022-11-30T09:41:11.501Z,92.28
2022-11-30T09:42:12.060Z,92.38
2022-11-30T09:43:12.580Z,92.38
2022-11-30T09:44:13.103Z,92.38
2022-11-30T09:45:14.067Z,92.38
2022-11-30T09:46:14.729Z,92.48
2022-11-30T09:47:15.332Z,92.48
2022-11-30T09:48:15.892Z,92.48
2022-11-30T09:49:16.433Z,92.38
2022-11-30T09:50:17.071Z,92.38
2022-11-30T09:51:17.605Z,92.38
2022-11-30T09:52:18.159Z,92.28
2022-11-30T09:53:18.697Z,92.38
2022-11-30T09:54:19.239Z,92.28
2022-11-30T09:55:29.995Z,92.28
2022-11-30T09:56:20.496Z,92.28
2022-11-30T09:57:21.067Z,92.28
2022-11-30T09:58:21.643Z,92.18
2022-11-30T09:59:22.268Z,92.18
2022-11-30T10:00:22.974Z,92.18
2022-11-30T10:01:23.701Z,92.08
2022-11-30T10:02:24.915Z,91.97
2022-11-30T10:03:25.287Z,91.97
2022-11-30T10:04:25.833Z,91.93
2022-11-30T10:05:26.359Z,91.93
2022-11-30T10:06:26.884Z,91.83
2022-11-30T10:07:27.532Z,91.83
2022-11-30T10:08:28.092Z,91.73
2022-11-30T10:09:28.700Z,91.83
2022-11-30T10:10:32.729Z,91.83
2022-11-30T10:11:30.370Z,91.73
2022-11-30T10:12:30.978Z,91.53
2022-11-30T10:13:31.527Z,91.53
2022-11-30T10:14:32.051Z,91.42
2022-11-30T10:15:32.637Z,91.32
2022-11-30T10:16:41.705Z,91.32
2022-11-30T10:17:34.090Z,91.22
2022-11-30T10:18:35.041Z,91.12
2022-11-30T10:19:36.343Z,91.12
2022-11-30T10:20:41.143Z,91.02
2022-11-30T10:21:47.738Z,91.02
2022-11-30T10:22:58.520Z,91.12
2022-11-30T10:23:43.171Z,91.12
2022-11-30T10:24:53.730Z,91.12
2022-11-30T10:25:40.820Z,91.18
2022-11-30T10:26:40.887Z,91.18
2022-11-30T10:27:41.517Z,91.18
2022-11-30T10:28:47.578Z,91.08
2022-11-30T10:29:43.136Z,90.98
2022-11-30T10:30:43.732Z,90.98
2022-11-30T10:31:44.263Z,90.88
2022-11-30T10:32:44.792Z,90.88
2022-11-30T10:33:45.347Z,90.88
2022-11-30T10:34:46.363Z,90.88
2022-11-30T10:35:46.748Z,90.88
2022-11-30T10:36:47.392Z,90.88
2022-11-30T10:37:47.923Z,90.88
2022-11-30T10:38:48.522Z,90.88
2022-11-30T10:39:49.087Z,90.88
2022-11-30T10:40:49.627Z,90.88
2022-11-30T10:41:51.098Z,90.78
2022-11-30T10:42:50.824Z,90.67
2022-11-30T10:43:51.407Z,90.67
2022-11-30T10:44:55.066Z,90.58
2022-11-30T10:45:54.065Z,90.37
2022-11-30T10:46:53.645Z,90.37
2022-11-30T10:47:54.204Z,90.27
2022-11-30T10:48:54.769Z,90.07
2022-11-30T10:49:55.416Z,89.87
2022-11-30T10:50:58.301Z,89.76
2022-11-30T10:51:57.413Z,89.66
2022-11-30T10:52:57.687Z,89.56
2022-11-30T10:53:58.698Z,89.56
2022-11-30T10:55:04.545Z,89.46
2022-11-30T10:56:01.531Z,89.46
2022-11-30T10:57:00.556Z,89.36
2022-11-30T10:58:01.091Z,89.36
2022-11-30T10:59:01.653Z,89.26
2022-11-30T11:00:02.169Z,89.26
2022-11-30T11:01:03.193Z,89.26
2022-11-30T11:02:03.350Z,89.26
2022-11-30T11:03:03.997Z,89.32
2022-11-30T11:04:04.639Z,89.36
2022-11-30T11:05:05.560Z,89.36
2022-11-30T11:06:08.548Z,89.42
2022-11-30T11:07:08.087Z,89.42
2022-11-30T11:08:07.801Z,89.62
2022-11-30T11:09:08.669Z,89.72
2022-11-30T11:10:10.773Z,89.72
2022-11-30T11:11:09.958Z,89.72
2022-11-30T11:12:11.166Z,89.72
2022-11-30T11:13:11.167Z,89.72
2022-11-30T11:14:12.726Z,89.72
2022-11-30T11:15:12.357Z,89.83
2022-11-30T11:16:12.973Z,89.92
2022-11-30T11:17:14.454Z,90.03
2022-11-30T11:18:14.896Z,90.03
2022-11-30T11:19:15.213Z,90.33
2022-11-30T11:20:16.185Z,90.59
2022-11-30T11:21:16.709Z,90.59
2022-11-30T11:22:17.587Z,90.59
2022-11-30T11:23:18.151Z,90.69
2022-11-30T11:24:18.766Z,90.69
2022-11-30T11:25:19.623Z,90.79
2022-11-30T11:26:20.182Z,90.69
2022-11-30T11:27:20.700Z,90.69
2022-11-30T11:28:21.217Z,90.59
2022-11-30T11:29:21.770Z,90.59
2022-11-30T11:30:22.296Z,90.49
2022-11-30T11:31:22.932Z,90.59
2022-11-30T11:32:23.482Z,90.59
2022-11-30T11:33:23.994Z,90.59
2022-11-30T11:34:24.576Z,90.59
2022-11-30T11:35:25.103Z,90.49
2022-11-30T11:36:25.657Z,90.59
2022-11-30T11:37:26.165Z,90.59
2022-11-30T11:38:26.698Z,90.59
2022-11-30T11:39:27.308Z,90.69
2022-11-30T11:40:27.830Z,90.79
2022-11-30T11:41:28.381Z,90.79
2022-11-30T11:42:28.915Z,90.79
2022-11-30T11:43:29.435Z,90.79
2022-11-30T11:44:32.873Z,90.79
2022-11-30T11:45:30.914Z,90.79
2022-11-30T11:46:31.664Z,90.79
2022-11-30T11:47:32.244Z,90.79
2022-11-30T11:48:32.772Z,90.69
2022-11-30T11:49:33.406Z,90.69
2022-11-30T11:51:34.858Z,90.79
2022-11-30T11:52:36.342Z,90.89
2022-11-30T11:53:41.379Z,90.89
2022-11-30T11:54:36.914Z,90.99
2022-11-30T11:55:42.094Z,90.99
2022-11-30T11:56:38.892Z,90.99
2022-11-30T11:57:40.097Z,90.99
2022-11-30T11:58:39.658Z,91.09
2022-11-30T11:59:40.358Z,91.09
2022-11-30T12:00:40.878Z,91.19
2022-11-30T12:02:23.793Z,91.19
2022-11-30T12:02:51.853Z,91.19
2022-11-30T12:03:42.875Z,91.19
2022-11-30T12:04:43.467Z,91.30
2022-11-30T12:05:44.000Z,91.39
2022-11-30T12:06:44.521Z,91.30
2022-11-30T12:07:45.165Z,91.60
2022-11-30T12:08:45.712Z,91.76
2022-11-30T12:09:46.530Z,91.76
2022-11-30T12:10:54.297Z,91.96
2022-11-30T12:11:48.148Z,91.96
2022-11-30T12:12:52.042Z,92.16
2022-11-30T12:13:49.018Z,92.36
2022-11-30T12:14:49.616Z,92.46
2022-11-30T12:15:51.583Z,92.46
2022-11-30T12:16:49.822Z,92.46
2022-11-30T12:17:51.358Z,92.57
2022-11-30T12:18:51.875Z,92.57
2022-11-30T12:19:52.430Z,92.57
2022-11-30T12:20:52.938Z,92.57
2022-11-30T12:21:53.448Z,92.66
2022-11-30T12:22:53.969Z,92.66
2022-11-30T12:23:54.499Z,92.86
2022-11-30T12:24:55.340Z,92.86
2022-11-30T12:25:55.862Z,92.97
2022-11-30T12:26:56.406Z,92.97
2022-11-30T12:27:56.928Z,92.97
2022-11-30T12:28:57.450Z,93.12
2022-11-30T12:29:58.014Z,93.12
2022-11-30T12:30:58.582Z,93.32
2022-11-30T12:31:59.156Z,93.32
2022-11-30T12:32:59.681Z,93.37
2022-11-30T12:34:00.234Z,93.37
2022-11-30T12:35:00.800Z,93.41
2022-11-30T12:36:01.317Z,93.37
2022-11-30T12:37:01.830Z,93.52
2022-11-30T12:38:02.348Z,93.62
2022-11-30T12:39:02.870Z,93.62
2022-11-30T12:40:03.469Z,93.62
2022-11-30T12:41:04.007Z,93.52
2022-11-30T12:42:04.549Z,93.52
2022-11-30T12:43:05.075Z,93.52
2022-11-30T12:44:05.597Z,93.52
2022-11-30T12:45:06.144Z,93.62
2022-11-30T12:46:06.687Z,93.52
2022-11-30T12:47:07.234Z,93.62
2022-11-30T12:48:07.776Z,93.52
2022-11-30T12:49:08.394Z,93.52
2022-11-30T12:50:08.982Z,93.52
2022-11-30T12:51:09.493Z,93.52
2022-11-30T12:52:10.005Z,93.52
2022-11-30T12:53:10.522Z,93.52
2022-11-30T12:54:11.040Z,93.52
2022-11-30T12:55:11.599Z,93.62
2022-11-30T12:56:12.112Z,93.62
2022-11-30T12:57:12.657Z,93.62
2022-11-30T12:58:13.192Z,93.62
2022-11-30T12:59:13.715Z,93.82
2022-11-30T13:00:14.253Z,93.92
2022-11-30T13:01:14.812Z,93.98
2022-11-30T13:02:15.474Z,94.08
2022-11-30T13:03:16.034Z,94.08
2022-11-30T13:04:16.532Z,94.08
2022-11-30T13:05:17.078Z,94.28
2022-11-30T13:06:17.595Z,94.38
2022-11-30T13:07:18.210Z,94.48
2022-11-30T13:08:18.766Z,94.48
2022-11-30T13:09:19.294Z,94.59
2022-11-30T13:10:19.861Z,94.59
2022-11-30T13:11:20.446Z,94.59
2022-11-30T13:12:21.565Z,94.68
2022-11-30T13:13:21.588Z,94.68
2022-11-30T13:14:22.113Z,94.68
2022-11-30T13:15:22.703Z,94.68
2022-11-30T13:16:23.252Z,94.68
2022-11-30T13:17:23.815Z,94.79